createdAt,value
2023-01-13T00:00:58.058Z,4.32
2023-01-13T00:04:01.064Z,4.33
2023-01-13T00:07:03.486Z,4.27
2023-01-13T00:10:11.182Z,4.18
2023-01-13T00:13:15.205Z,4.26
2023-01-13T00:16:18.473Z,4.16
2023-01-13T00:19:21.146Z,4.05
2023-01-13T00:22:23.469Z,3.77
2023-01-13T00:25:26.067Z,4.08
2023-01-13T00:28:29.321Z,3.95
2023-01-13T00:31:32.009Z,3.86
2023-01-13T00:34:34.397Z,3.97
2023-01-13T00:37:37.906Z,3.96
2023-01-13T00:40:40.202Z,4.05
2023-01-13T00:43:43.056Z,4.10
2023-01-13T00:46:45.474Z,3.94
2023-01-13T00:49:47.787Z,4.11
2023-01-13T00:52:50.059Z,4.07
2023-01-13T00:56:03.627Z,4.21
2023-01-13T00:59:06.295Z,3.99
2023-01-13T01:02:08.827Z,3.93
2023-01-13T01:05:11.330Z,3.94
2023-01-13T01:08:13.702Z,3.92
2023-01-13T01:11:20.793Z,4.19
2023-01-13T01:14:23.185Z,4.30
2023-01-13T01:17:25.519Z,3.87
2023-01-13T01:20:30.057Z,4.05
2023-01-13T01:23:33.809Z,4.08
2023-01-13T01:26:36.216Z,3.99
2023-01-13T01:29:38.567Z,3.91
2023-01-13T01:32:40.888Z,3.82
2023-01-13T01:35:43.238Z,3.82
2023-01-13T01:38:47.080Z,3.87
2023-01-13T01:42:07.967Z,3.99
2023-01-13T01:45:24.237Z,3.98
2023-01-13T01:48:29.230Z,3.87
2023-01-13T01:51:35.748Z,4.08
2023-01-13T01:54:49.429Z,3.83
2023-01-13T01:58:12.640Z,3.82
2023-01-13T02:01:16.387Z,3.95
2023-01-13T02:04:25.063Z,3.89
2023-01-13T02:07:30.778Z,3.87
2023-01-13T02:10:33.535Z,3.66
2023-01-13T02:13:35.844Z,3.56
2023-01-13T02:16:44.964Z,3.79
2023-01-13T02:20:25.625Z,3.94
2023-01-13T02:24:30.317Z,3.89
2023-01-13T02:28:17.116Z,3.83
2023-01-13T02:31:38.708Z,3.77
2023-01-13T02:34:51.891Z,3.81
2023-01-13T02:37:56.807Z,3.84
2023-01-13T02:41:42.101Z,3.56
2023-01-13T02:44:52.182Z,3.81
2023-01-13T02:47:57.642Z,3.81
2023-01-13T02:51:05.958Z,3.71
2023-01-13T02:54:20.406Z,3.74
2023-01-13T02:57:25.738Z,3.94
2023-01-13T03:00:29.338Z,3.76
2023-01-13T03:03:31.762Z,3.95
2023-01-13T03:06:40.989Z,4.06
2023-01-13T03:09:51.651Z,4.13
2023-01-13T03:13:30.273Z,4.05
2023-01-13T03:16:53.780Z,4.26
2023-01-13T03:20:13.488Z,4.21
2023-01-13T03:23:24.684Z,4.37
2023-01-13T03:26:35.733Z,4.23
2023-01-13T03:29:45.536Z,4.30
2023-01-13T03:32:54.205Z,4.22
2023-01-13T03:36:02.172Z,4.29
2023-01-13T03:39:12.309Z,4.31
2023-01-13T03:42:20.890Z,4.02
2023-01-13T03:45:23.504Z,4.25
2023-01-13T03:48:29.462Z,3.85
2023-01-13T03:51:34.911Z,4.24
2023-01-13T03:54:45.289Z,4.16
2023-01-13T03:58:14.446Z,4.28
2023-01-13T04:01:32.054Z,4.25
2023-01-13T04:04:41.398Z,4.24
2023-01-13T04:07:50.115Z,4.33
2023-01-13T04:11:03.435Z,4.18
2023-01-13T04:14:09.217Z,4.10
2023-01-13T04:17:12.032Z,4.18
2023-01-13T04:20:14.734Z,4.25
2023-01-13T04:23:18.663Z,4.10
2023-01-13T04:26:23.386Z,4.07
2023-01-13T04:29:26.661Z,3.96
2023-01-13T04:32:29.064Z,3.99
2023-01-13T04:35:32.935Z,4.19
2023-01-13T04:38:35.333Z,4.10
2023-01-13T04:41:56.656Z,4.53
2023-01-13T04:44:59.141Z,4.28
2023-01-13T04:48:01.626Z,4.19
2023-01-13T04:51:04.122Z,4.42
2023-01-13T04:54:06.580Z,4.27
2023-01-13T04:57:09.057Z,4.49
2023-01-13T05:00:15.293Z,4.56
2023-01-13T05:03:18.699Z,4.35
2023-01-13T05:06:21.023Z,4.37
2023-01-13T05:09:23.490Z,4.41
2023-01-13T05:12:44.755Z,4.66
2023-01-13T05:16:06.811Z,4.62
2023-01-13T05:19:09.500Z,4.65
2023-01-13T05:22:30.146Z,4.68
2023-01-13T05:25:35.396Z,4.43
2023-01-13T05:28:37.788Z,4.29
2023-01-13T05:31:40.290Z,4.46
2023-01-13T05:34:42.612Z,4.30
2023-01-13T05:37:46.153Z,4.17
2023-01-13T05:41:08.321Z,4.34
2023-01-13T05:44:10.837Z,4.63
2023-01-13T05:47:13.238Z,4.62
2023-01-13T05:50:16.328Z,4.55
2023-01-13T05:53:18.972Z,4.41
2023-01-13T05:56:21.383Z,4.50
2023-01-13T05:59:23.773Z,4.62
2023-01-13T06:02:26.726Z,4.60
2023-01-13T06:05:29.522Z,4.85
2023-01-13T06:08:32.809Z,4.48
2023-01-13T06:11:35.317Z,4.66
2023-01-13T06:14:40.281Z,4.48
2023-01-13T06:17:42.849Z,4.37
2023-01-13T06:20:47.086Z,4.45
2023-01-13T06:23:49.533Z,4.55
2023-01-13T06:26:51.885Z,4.73
2023-01-13T06:29:54.584Z,4.71
2023-01-13T06:33:00.758Z,4.53
2023-01-13T06:36:11.187Z,4.18
2023-01-13T06:39:20.233Z,4.46
2023-01-13T06:42:40.950Z,4.41
2023-01-13T06:45:53.468Z,4.47
2023-01-13T06:48:55.869Z,4.33
2023-01-13T06:51:58.270Z,4.19
2023-01-13T06:55:00.676Z,4.31
2023-01-13T06:58:03.431Z,4.59
2023-01-13T07:01:06.052Z,4.65
2023-01-13T07:04:08.707Z,4.49
2023-01-13T07:07:12.480Z,4.48
2023-01-13T07:10:22.237Z,4.53
2023-01-13T07:13:43.450Z,4.28
2023-01-13T07:16:45.883Z,4.19
2023-01-13T07:19:48.462Z,4.36
2023-01-13T07:22:54.853Z,4.02
2023-01-13T07:25:58.777Z,3.96
2023-01-13T07:29:01.167Z,3.97
2023-01-13T07:32:03.821Z,3.79
2023-01-13T07:35:06.889Z,3.67
2023-01-13T07:38:09.423Z,3.46
2023-01-13T07:41:32.741Z,3.51
2023-01-13T07:44:35.174Z,3.53
2023-01-13T07:47:37.599Z,3.59
2023-01-13T07:50:41.108Z,3.66
2023-01-13T07:53:45.196Z,3.84
2023-01-13T07:56:47.647Z,3.68
2023-01-13T07:59:50.239Z,3.59
2023-01-13T08:02:52.671Z,3.84
2023-01-13T08:05:55.756Z,3.75
2023-01-13T08:08:58.648Z,3.62
2023-01-13T08:12:19.874Z,3.70
2023-01-13T08:15:22.715Z,3.76
2023-01-13T08:18:25.374Z,3.62
2023-01-13T08:21:27.778Z,3.80
2023-01-13T08:24:30.320Z,3.45
2023-01-13T08:27:33.928Z,3.78
2023-01-13T08:30:36.674Z,3.88
2023-01-13T08:33:39.808Z,3.77
2023-01-13T08:37:00.923Z,3.88
2023-01-13T08:40:18.528Z,3.64
2023-01-13T08:43:21.898Z,3.70
2023-01-13T08:46:24.249Z,3.77
2023-01-13T08:49:27.239Z,3.79
2023-01-13T08:52:30.369Z,3.78
2023-01-13T08:55:33.031Z,3.93
2023-01-13T08:58:35.707Z,3.42
2023-01-13T09:01:40.630Z,3.96
2023-01-13T09:04:55.512Z,3.81
2023-01-13T09:07:57.989Z,3.86
2023-01-13T09:11:00.521Z,3.67
2023-01-13T09:14:03.698Z,3.90
2023-01-13T09:17:07.646Z,3.88
2023-01-13T09:20:10.896Z,3.88
2023-01-13T09:23:14.304Z,3.79
2023-01-13T09:26:20.675Z,3.61
2023-01-13T09:29:23.276Z,3.87
2023-01-13T09:32:26.131Z,3.96
2023-01-13T09:35:28.490Z,3.93
2023-01-13T09:38:30.940Z,3.88
2023-01-13T09:42:00.353Z,3.91
2023-01-13T09:45:07.253Z,4.17
2023-01-13T09:48:15.684Z,3.96
2023-01-13T09:51:31.703Z,3.81
2023-01-13T09:54:41.346Z,4.09
2023-01-13T09:57:48.935Z,3.95
2023-01-13T10:01:06.483Z,4.01
2023-01-13T10:04:14.244Z,4.00
2023-01-13T10:07:16.947Z,4.10
2023-01-13T10:10:33.778Z,3.76
2023-01-13T10:13:36.255Z,3.73
2023-01-13T10:16:48.208Z,3.99
2023-01-13T10:20:04.670Z,3.94
2023-01-13T10:23:12.935Z,3.92
2023-01-13T10:26:41.931Z,3.91
2023-01-13T10:29:44.504Z,3.94
2023-01-13T10:32:58.681Z,3.70
2023-01-13T10:36:03.255Z,3.97
2023-01-13T10:39:14.595Z,4.17
2023-01-13T10:42:19.388Z,3.92
2023-01-13T10:45:25.718Z,3.68
2023-01-13T10:48:36.155Z,3.84
2023-01-13T10:51:43.633Z,4.04
2023-01-13T10:54:54.790Z,3.86
2023-01-13T10:57:57.603Z,3.84
2023-01-13T11:01:04.593Z,4.03
2023-01-13T11:04:28.061Z,3.87
2023-01-13T11:07:40.153Z,4.02
2023-01-13T11:10:47.605Z,3.88
2023-01-13T11:14:12.539Z,3.93
2023-01-13T11:17:19.949Z,4.06
2023-01-13T11:20:32.469Z,4.03
2023-01-13T11:23:47.362Z,4.08
2023-01-13T11:27:09.959Z,4.15
2023-01-13T11:30:17.990Z,4.21
2023-01-13T11:33:32.463Z,3.96
2023-01-13T11:36:48.845Z,4.21
2023-01-13T11:39:56.259Z,4.11
2023-01-13T11:43:14.191Z,4.22
2023-01-13T11:46:16.600Z,4.16
2023-01-13T11:49:31.060Z,3.97
2023-01-13T11:53:09.483Z,4.20
2023-01-13T11:56:49.162Z,4.23
2023-01-13T11:59:51.519Z,4.22
2023-01-13T12:02:58.117Z,4.18
2023-01-13T12:06:17.489Z,4.19
2023-01-13T12:09:48.777Z,4.19
2023-01-13T12:12:58.384Z,4.27
2023-01-13T12:16:20.815Z,4.36
2023-01-13T12:19:29.082Z,4.38
2023-01-13T12:22:35.295Z,4.40
2023-01-13T12:25:45.405Z,4.46
2023-01-13T12:28:59.330Z,4.55
2023-01-13T12:32:05.576Z,4.67
2023-01-13T12:35:35.254Z,4.87
2023-01-13T12:39:00.157Z,4.52
2023-01-13T12:42:46.005Z,4.77
2023-01-13T12:45:48.532Z,4.67
2023-01-13T12:48:59.629Z,4.74
2023-01-13T12:52:12.597Z,4.85
2023-01-13T12:55:28.757Z,4.67
2023-01-13T12:58:31.257Z,4.68
2023-01-13T13:01:37.716Z,4.81
2023-01-13T13:04:49.709Z,5.01
2023-01-13T13:08:04.972Z,4.88
2023-01-13T13:11:32.243Z,4.96
2023-01-13T13:14:37.452Z,4.87
2023-01-13T13:17:40.150Z,4.54
2023-01-13T13:21:10.569Z,4.69
2023-01-13T13:24:13.132Z,4.57
2023-01-13T13:28:09.056Z,4.67
2023-01-13T13:31:29.509Z,4.51
2023-01-13T13:34:42.491Z,4.78
2023-01-13T13:38:22.162Z,4.92
2023-01-13T13:41:44.865Z,4.90
2023-01-13T13:45:08.450Z,4.76
2023-01-13T13:48:26.083Z,5.06
2023-01-13T13:51:39.183Z,4.99
2023-01-13T13:54:47.924Z,5.12
2023-01-13T13:57:52.810Z,5.08
2023-01-13T14:00:56.995Z,5.10
2023-01-13T14:04:19.571Z,5.26
2023-01-13T14:07:22.123Z,5.18
2023-01-13T14:10:35.937Z,5.25
2023-01-13T14:13:38.469Z,5.48
2023-01-13T14:16:41.382Z,4.99
2023-01-13T14:19:47.725Z,4.93
2023-01-13T14:22:53.320Z,5.09
2023-01-13T14:26:13.051Z,5.16
2023-01-13T14:29:24.874Z,4.89
2023-01-13T14:32:36.558Z,4.93
2023-01-13T14:35:38.968Z,5.03
2023-01-13T14:38:43.771Z,4.89
2023-01-13T14:41:48.318Z,4.92
2023-01-13T14:44:51.605Z,4.86
2023-01-13T14:47:54.376Z,5.02
2023-01-13T14:50:57.155Z,4.88
2023-01-13T14:54:00.052Z,5.04
2023-01-13T14:57:27.675Z,4.91
2023-01-13T15:00:30.348Z,4.97
2023-01-13T15:03:42.182Z,4.87
2023-01-13T15:06:51.612Z,4.92
2023-01-13T15:09:57.226Z,4.76
2023-01-13T15:13:02.884Z,4.74
2023-01-13T15:16:14.261Z,4.79
2023-01-13T15:19:16.702Z,4.75
2023-01-13T15:22:19.067Z,5.06
2023-01-13T15:25:22.061Z,5.09
2023-01-13T15:28:26.607Z,5.09
2023-01-13T15:31:29.212Z,4.98
2023-01-13T15:34:31.617Z,5.08
2023-01-13T15:37:34.179Z,5.28
2023-01-13T15:40:40.989Z,5.37
2023-01-13T15:44:18.809Z,5.16
2023-01-13T15:47:24.884Z,5.17
2023-01-13T15:50:27.320Z,5.17
2023-01-13T15:53:29.920Z,5.15
2023-01-13T15:56:36.258Z,5.01
2023-01-13T15:59:38.684Z,4.88
2023-01-13T16:02:41.138Z,5.19
2023-01-13T16:05:44.575Z,5.02
2023-01-13T16:08:47.089Z,4.94
2023-01-13T16:11:49.568Z,5.13
2023-01-13T16:14:52.072Z,4.72
2023-01-13T16:17:57.977Z,4.89
2023-01-13T16:21:00.392Z,5.00
2023-01-13T16:24:02.832Z,5.04
2023-01-13T16:27:23.394Z,4.87
2023-01-13T16:30:29.510Z,5.04
2023-01-13T16:33:32.023Z,4.79
2023-01-13T16:36:35.990Z,5.08
2023-01-13T16:39:38.353Z,4.96
2023-01-13T16:42:40.692Z,4.99
2023-01-13T16:45:43.905Z,4.98
2023-01-13T16:48:47.104Z,4.95
2023-01-13T16:51:49.656Z,5.05
2023-01-13T16:54:52.215Z,5.23
2023-01-13T16:57:54.983Z,5.07
2023-01-13T17:00:57.600Z,5.13
2023-01-13T17:04:00.884Z,4.99
2023-01-13T17:07:06.062Z,5.13
2023-01-13T17:10:12.720Z,4.97
2023-01-13T17:13:17.076Z,5.15
2023-01-13T17:16:22.767Z,5.07
2023-01-13T17:19:25.843Z,5.29
2023-01-13T17:22:28.323Z,5.23
2023-01-13T17:25:30.892Z,5.16
2023-01-13T17:28:33.601Z,5.19
2023-01-13T17:31:36.625Z,5.15
2023-01-13T17:34:40.159Z,5.17
2023-01-13T17:37:42.544Z,5.12
2023-01-13T17:40:44.999Z,5.26
2023-01-13T17:43:48.369Z,5.17
2023-01-13T17:46:50.965Z,4.95
2023-01-13T17:49:53.496Z,5.10
2023-01-13T17:52:56.194Z,5.12
2023-01-13T17:55:58.669Z,4.97
2023-01-13T17:59:01.089Z,5.13
2023-01-13T18:02:04.824Z,5.18
2023-01-13T18:05:07.803Z,5.16
2023-01-13T18:08:10.648Z,5.14
2023-01-13T18:11:14.265Z,5.41
2023-01-13T18:14:17.827Z,5.22
2023-01-13T18:17:20.547Z,5.24
2023-01-13T18:20:46.324Z,5.14
2023-01-13T18:24:08.040Z,4.97
2023-01-13T18:27:18.908Z,5.10
2023-01-13T18:30:23.483Z,4.95
2023-01-13T18:33:25.981Z,5.04
2023-01-13T18:36:28.553Z,5.19
2023-01-13T18:39:30.996Z,5.09
2023-01-13T18:42:51.565Z,5.03
2023-01-13T18:45:54.244Z,5.19
2023-01-13T18:48:56.848Z,5.06
2023-01-13T18:51:59.401Z,5.18
2023-01-13T18:55:01.986Z,5.23
2023-01-13T18:58:04.773Z,5.24
2023-01-13T19:01:07.305Z,5.18
2023-01-13T19:04:15.598Z,5.31
2023-01-13T19:07:23.637Z,5.31
2023-01-13T19:10:31.738Z,5.33
2023-01-13T19:13:37.580Z,5.32
2023-01-13T19:16:40.027Z,5.34
2023-01-13T19:19:44.595Z,5.10
2023-01-13T19:22:53.904Z,4.94
2023-01-13T19:26:12.877Z,5.16
2023-01-13T19:29:15.593Z,5.28
2023-01-13T19:32:18.396Z,5.35
2023-01-13T19:35:21.136Z,5.27
2023-01-13T19:38:24.817Z,5.21
2023-01-13T19:41:45.721Z,5.37
2023-01-13T19:45:07.148Z,5.44
2023-01-13T19:48:09.644Z,5.35
2023-01-13T19:51:14.396Z,5.38
2023-01-13T19:54:16.865Z,5.32
2023-01-13T19:57:20.310Z,5.28
2023-01-13T20:00:24.387Z,5.16
2023-01-13T20:03:31.109Z,5.20
2023-01-13T20:06:33.588Z,5.24
2023-01-13T20:09:36.144Z,5.33
2023-01-13T20:12:39.061Z,5.31
2023-01-13T20:15:42.781Z,5.21
2023-01-13T20:18:50.272Z,5.38
2023-01-13T20:21:52.623Z,5.40
2023-01-13T20:24:55.364Z,5.37
2023-01-13T20:27:58.751Z,5.32
2023-01-13T20:31:01.209Z,5.34
2023-01-13T20:34:03.901Z,5.17
2023-01-13T20:37:06.682Z,5.23
2023-01-13T20:40:12.995Z,5.05
2023-01-13T20:43:17.841Z,5.32
2023-01-13T20:46:21.567Z,5.24
2023-01-13T20:49:26.395Z,5.42
2023-01-13T20:52:29.356Z,5.23
2023-01-13T20:55:31.777Z,5.23
2023-01-13T20:58:34.741Z,5.25
2023-01-13T21:01:37.916Z,5.31
2023-01-13T21:04:41.011Z,5.17
2023-01-13T21:07:43.510Z,5.20
2023-01-13T21:10:46.013Z,5.15
2023-01-13T21:14:06.624Z,5.13
2023-01-13T21:17:31.275Z,5.23
2023-01-13T21:20:36.979Z,5.35
2023-01-13T21:23:44.223Z,5.17
2023-01-13T21:26:48.462Z,5.43
2023-01-13T21:29:51.150Z,5.06
2023-01-13T21:32:53.468Z,5.18
2023-01-13T21:35:56.013Z,5.14
2023-01-13T21:38:59.356Z,5.31
2023-01-13T21:42:20.196Z,5.01
2023-01-13T21:45:41.522Z,5.32
2023-01-13T21:48:43.949Z,5.29
2023-01-13T21:51:46.356Z,5.29
2023-01-13T21:55:07.115Z,5.43
2023-01-13T21:58:12.314Z,5.45
2023-01-13T22:01:15.587Z,5.48
2023-01-13T22:04:22.119Z,5.42
2023-01-13T22:07:24.451Z,5.40
2023-01-13T22:10:30.189Z,5.33
2023-01-13T22:13:50.959Z,5.32
2023-01-13T22:16:54.136Z,5.38
2023-01-13T22:19:57.813Z,5.47
2023-01-13T22:23:00.322Z,5.41
2023-01-13T22:26:04.237Z,5.22
2023-01-13T22:29:06.605Z,5.15
2023-01-13T22:32:09.362Z,5.10
2023-01-13T22:35:13.567Z,5.57
2023-01-13T22:38:16.007Z,5.30
2023-01-13T22:41:18.616Z,5.34
2023-01-13T22:44:21.942Z,5.41
2023-01-13T22:47:24.309Z,5.12
2023-01-13T22:50:26.865Z,5.26
2023-01-13T22:53:29.502Z,5.14
2023-01-13T22:56:31.921Z,5.39
2023-01-13T22:59:34.529Z,5.21
2023-01-13T23:02:38.270Z,5.20
2023-01-13T23:05:41.649Z,5.09
2023-01-13T23:08:44.478Z,5.25
2023-01-13T23:11:47.929Z,5.09
2023-01-13T23:14:50.560Z,4.88
2023-01-13T23:17:53.552Z,5.16
2023-01-13T23:20:56.428Z,4.90
2023-01-13T23:23:59.320Z,4.90
2023-01-13T23:27:01.711Z,4.84
2023-01-13T23:30:08.548Z,4.69
2023-01-13T23:33:11.306Z,4.78
2023-01-13T23:36:17.426Z,4.88
2023-01-13T23:39:19.880Z,4.98
2023-01-13T23:42:22.273Z,4.99
2023-01-13T23:45:24.744Z,5.16
2023-01-13T23:48:27.121Z,4.79
2023-01-13T23:51:30.261Z,4.90
2023-01-13T23:54:32.667Z,4.46
2023-01-13T23:57:35.128Z,4.67
